Terminal Aerodrome Forecast
Issued by NWS

Current Version | Previous Version | Graphics & Text | Print | Product List | Glossary On
Versions: 1 2 3 4 5 6 7 8 9 10 11 12 13 14 15 16 17 18 19 20 21 22 23 24 25 26 27 28 29 30 31 32 33
000
FTUS41 KPBZ 212328
TAFMGW
TAF
KMGW 212328Z 2200/2224 36007KT P6SM VCSH OVC015
     FM220500 02006KT P6SM VCSH OVC020
     FM220800 02006KT 4SM -RA OVC030
     FM221200 04008KT 2SM -RA OVC015
     FM221600 10008KT 2SM -RA OVC008
     FM222100 28005KT P6SM OVC008
     FM222300 35005KT P6SM OVC010=

USA.gov is the U.S. government's official web portal to all federal, state and local government web resources and services.